Huvudsida
METAR-TAF:

METAR-TAF

Flygplatser :

Salalah, Oman

latitud: 17-02N, longitud: 054-05E, höjd: 20 m

Aktuellt väderrapport

Denna rapport gjordes för 56 minuter sedan, klockan 21:50 UTC
Vind 5 kt från sydväst
Temperatur 24°C
Fuktighet 74%
Tryck 1013 hPa
Sikt 10 km eller mer
Få moln på en höjd av 1500 ft
Brutna moln på en höjd av 3500 ft

METAR: OOSA 192150Z 22005KT 9999 FEW015 BKN035 24/19 Q1013 NOSIG

Tid: 02:46 (22:46 UTC)

Väderprognos

Denna rapport gjordes för 5 timmar och 46 minuter sedan, klockan 17:00 UTC
Prognos gäller från 19 kl. 18 UTC till 21 kl. 00 UTC
Vind 6 kt från syd/sydväst
Sikt 10 km eller mer
Brutna moln på en höjd av 2500 ft
Blir
från 19 kl. 21 UTC till 19 kl. 23 UTC
Vind 3 kt varierande vindriktning
Blir
från 20 kl. 06 UTC till 20 kl. 08 UTC
Vind 10 kt från syd
Spridda moln på en höjd av 2500 ft

TAF: OOSA 191700Z 1918/2100 20006KT 9999 BKN025 BECMG 1921/1923 VRB03KT BECMG 2006/2008 19010KT SCT025

Aktuella väderrapporter och prognoser från 4000 flygplatser (METAR- och TAF-rapporter).

De tillgängliga stationerna syns som gula och röda prickar på kartan.

För musen över prickarna för att se namnen på stationerna.

Klicka sedan för att få väderrapporter och prognoser.

För att ändra kartan: Klicka på de gröna knapparna med ett svart kors på för att zooma in; den gröna knappen med ett streck på för att zooma ut; eller på de gröna pilarna för angränsande kartor.


METAR-TAF: